Time;durP1;ratioP1;P1;durP2;ratioP2;P2;SDS_P1;SDS_P2;PMS_P1;PMS_P2;Temp;Humidity;BMP_temperature;BMP_pressure;BME280_temperature;BME280_humidity;BME280_pressure;Samples;Min_cycle;Max_cycle;Signal;HPM_P1;HPM_P2
2023/09/11 00:02:10;;;;;;;11.03;9.87;;;;;;;20.18;69.09;100917.38;5093936;28;20200;-74
2023/09/11 00:04:42;;;;;;;11.63;10.63;;;;;;;20.05;69.54;100923.72;5092932;28;20424;-74
2023/09/11 00:07:14;;;;;;;11.35;10.27;;;;;;;20.02;69.44;100907.88;5092948;28;20923;-74
2023/09/11 00:09:46;;;;;;;11.18;10.20;;;;;;;19.71;70.61;100913.25;5093559;28;20515;-75
2023/09/11 00:12:18;;;;;;;10.87;9.83;;;;;;;19.68;71.38;100909.09;5093520;28;20283;-74
2023/09/11 00:14:50;;;;;;;11.17;10.17;;;;;;;19.47;71.42;100906.66;5091556;28;20951;-74
2023/09/11 00:17:22;;;;;;;11.45;10.35;;;;;;;19.44;71.52;100898.94;5092210;28;20890;-74
2023/09/11 00:19:55;;;;;;;11.15;10.15;;;;;;;19.29;72.36;100895.59;5092555;28;20425;-74
2023/09/11 00:22:27;;;;;;;10.80;9.90;;;;;;;19.11;73.05;100892.75;5092387;28;20455;-75
2023/09/11 00:24:58;;;;;;;11.20;10.20;;;;;;;19.07;73.65;100886.06;5092847;28;20432;-75
2023/09/11 00:27:30;;;;;;;10.60;9.60;;;;;;;19.03;73.73;100880.22;5092380;28;20515;-75
2023/09/11 00:30:02;;;;;;;11.10;8.87;;;;;;;19.11;72.66;100879.16;5093462;28;20195;-75
2023/09/11 00:32:34;;;;;;;10.50;9.55;;;;;;;19.01;73.14;100881.47;5092250;28;20437;-75
2023/09/11 00:35:07;;;;;;;10.68;9.52;;;;;;;19.15;73.21;100874.97;5092143;28;20481;-75
2023/09/11 00:37:39;;;;;;;10.80;9.73;;;;;;;19.20;72.65;100870.59;5092141;28;20516;-75
2023/09/11 00:40:13;;;;;;;11.15;10.15;;;;;;;19.21;71.78;100868.72;5092257;28;20837;-74
2023/09/11 00:42:44;;;;;;;10.43;9.57;;;;;;;19.25;72.50;100867.22;5092479;28;20898;-75
2023/09/11 00:45:16;;;;;;;10.80;9.80;;;;;;;19.39;71.46;100874.25;5091938;28;20421;-75
2023/09/11 00:47:49;;;;;;;11.43;10.40;;;;;;;19.16;72.12;100872.06;5092346;28;20428;-75
2023/09/11 00:50:21;;;;;;;11.88;10.70;;;;;;;18.87;74.05;100869.00;5092190;28;20445;-75
2023/09/11 00:52:54;;;;;;;11.18;10.18;;;;;;;18.95;73.65;100871.47;5092022;28;20424;-75
2023/09/11 00:55:26;;;;;;;11.07;10.07;;;;;;;19.00;73.16;100866.25;5093052;28;20611;-75
2023/09/11 00:57:58;;;;;;;11.13;10.02;;;;;;;18.96;72.76;100859.56;5092279;28;20512;-75
2023/09/11 01:00:30;;;;;;;10.98;9.88;;;;;;;18.91;73.44;100859.34;5092675;28;20432;-75
2023/09/11 01:03:02;;;;;;;11.85;10.75;;;;;;;18.97;73.24;100855.81;5092248;28;20486;-74
2023/09/11 01:05:36;;;;;;;11.75;10.57;;;;;;;19.18;72.10;100852.81;5092756;28;20428;-74
2023/09/11 01:08:08;;;;;;;11.93;10.90;;;;;;;19.09;72.38;100849.53;5091995;28;20507;-74
2023/09/11 01:10:40;;;;;;;12.10;11.00;;;;;;;19.04;72.72;100837.66;5092169;28;20444;-74
2023/09/11 01:13:11;;;;;;;11.82;10.73;;;;;;;19.07;72.58;100840.78;5092017;28;20507;-74
2023/09/11 01:15:50;;;;;;;11.40;10.40;;;;;;;18.93;72.98;100839.13;5091912;28;20428;-75
2023/09/11 01:18:29;;;;;;;12.13;11.10;;;;;;;18.71;73.77;100832.28;5091851;28;20424;-75
2023/09/11 01:21:22;;;;;;;11.95;10.90;;;;;;;18.67;73.89;100834.56;5094969;28;20439;-74
2023/09/11 01:24:25;;;;;;;12.82;11.63;;;;;;;18.51;75.90;100821.47;5094338;28;20428;-74
2023/09/11 01:27:31;;;;;;;11.73;10.57;;;;;;;18.73;73.86;100822.88;5095795;28;20864;-74
2023/09/11 01:30:05;;;;;;;11.73;10.73;;;;;;;18.67;74.36;100828.31;5096946;28;20432;-75
2023/09/11 01:32:38;;;;;;;11.77;10.68;;;;;;;18.50;74.44;100822.50;5096048;28;20527;-75
2023/09/11 01:35:11;;;;;;;11.93;10.82;;;;;;;18.34;75.92;100822.91;5096314;28;20439;-75
2023/09/11 01:37:43;;;;;;;11.80;10.70;;;;;;;18.41;75.23;100823.72;5097319;28;20216;-75
2023/09/11 01:40:15;;;;;;;11.00;10.00;;;;;;;18.63;74.52;100819.75;5097363;28;20456;-74
2023/09/11 01:42:53;;;;;;;11.23;10.23;;;;;;;18.60;73.81;100816.63;5097050;28;20427;-74
2023/09/11 01:45:26;;;;;;;11.45;10.45;;;;;;;18.50;74.87;100827.91;5095661;28;20865;-74
2023/09/11 01:48:00;;;;;;;11.73;10.63;;;;;;;18.42;75.07;100825.41;5096034;28;20433;-74
2023/09/11 01:50:34;;;;;;;12.38;11.27;;;;;;;18.25;75.96;100818.75;5095801;28;20429;-75
2023/09/11 01:53:07;;;;;;;12.20;11.10;;;;;;;18.32;74.77;100824.16;5096122;28;20512;-75
2023/09/11 01:55:39;;;;;;;11.85;10.85;;;;;;;18.20;76.21;100823.94;5095769;28;20478;-75
2023/09/11 01:58:11;;;;;;;12.03;11.03;;;;;;;18.04;76.98;100821.63;5095583;28;20425;-75
2023/09/11 02:00:43;;;;;;;11.43;10.07;;;;;;;18.04;77.34;100821.63;5096576;28;20451;-75
2023/09/11 02:03:16;;;;;;;11.60;10.63;;;;;;;17.96;77.28;100819.94;5095279;28;20429;-75
2023/09/11 02:05:48;;;;;;;13.02;11.73;;;;;;;18.07;76.58;100826.63;5095592;28;20457;-75
2023/09/11 02:08:20;;;;;;;12.88;11.60;;;;;;;17.95;76.90;100823.69;5094765;28;20920;-75
2023/09/11 02:10:53;;;;;;;12.98;11.85;;;;;;;17.91;77.09;100821.63;5095002;28;20430;-75
2023/09/11 02:13:25;;;;;;;13.45;12.20;;;;;;;17.87;77.99;100826.63;5095179;28;20678;-75
2023/09/11 02:15:57;;;;;;;12.80;11.50;;;;;;;17.86;77.42;100819.53;5095707;28;20719;-75
2023/09/11 02:18:29;;;;;;;11.67;10.53;;;;;;;17.87;77.52;100820.38;5095930;28;20437;-75
2023/09/11 02:21:01;;;;;;;12.93;11.83;;;;;;;17.86;77.03;100818.69;5095632;28;20482;-75
2023/09/11 02:23:33;;;;;;;12.45;11.40;;;;;;;17.85;77.67;100817.00;5094863;28;20994;-75
2023/09/11 02:26:05;;;;;;;14.82;13.43;;;;;;;17.64;78.78;100826.13;5094589;28;20420;-75
2023/09/11 02:28:37;;;;;;;12.85;11.60;;;;;;;17.64;79.59;100818.84;5096059;28;20425;-75
2023/09/11 02:31:10;;;;;;;13.88;12.50;;;;;;;17.70;78.51;100815.34;5094257;28;20902;-74
2023/09/11 02:33:42;;;;;;;13.50;12.30;;;;;;;17.75;78.10;100817.41;5094368;28;20460;-74
2023/09/11 02:36:14;;;;;;;14.20;12.85;;;;;;;17.83;77.00;100810.97;5094375;28;20425;-74
2023/09/11 02:38:45;;;;;;;14.00;12.70;;;;;;;17.98;77.04;100806.22;5093705;28;20459;-74
2023/09/11 02:41:17;;;;;;;14.02;12.45;;;;;;;18.04;76.39;100813.50;5094417;28;20425;-74
2023/09/11 02:43:50;;;;;;;13.88;12.65;;;;;;;17.89;76.94;100812.84;5094064;28;20424;-74
2023/09/11 02:46:21;;;;;;;15.25;13.93;;;;;;;17.72;77.02;100802.41;5094019;28;20506;-74
2023/09/11 02:48:53;;;;;;;15.80;14.23;;;;;;;17.68;77.90;100806.56;5094935;28;20458;-74
2023/09/11 02:51:25;;;;;;;15.68;14.27;;;;;;;17.81;77.35;100810.34;5094447;28;20441;-74
2023/09/11 02:53:57;;;;;;;18.30;16.43;;;;;;;17.68;77.80;100803.84;5093887;28;20433;-74
2023/09/11 02:56:29;;;;;;;16.95;15.35;;;;;;;17.58;78.34;100806.13;5093783;28;20477;-74
2023/09/11 02:59:01;;;;;;;17.85;16.35;;;;;;;17.50;79.88;100797.34;5094223;28;20921;-74
2023/09/11 03:01:34;;;;;;;16.55;15.07;;;;;;;17.48;78.84;100793.97;5093873;28;20421;-74
2023/09/11 03:04:06;;;;;;;16.80;15.30;;;;;;;17.45;79.24;100800.66;5094027;28;20930;-74
2023/09/11 03:06:38;;;;;;;16.50;15.00;;;;;;;17.42;78.40;100792.94;5093582;28;20456;-74
2023/09/11 03:09:11;;;;;;;15.23;13.70;;;;;;;17.59;77.27;100791.56;5094720;28;20632;-74
2023/09/11 03:11:43;;;;;;;16.52;15.02;;;;;;;17.52;77.87;100787.97;5093517;28;20447;-74
2023/09/11 03:14:17;;;;;;;16.67;15.13;;;;;;;17.44;78.36;100782.72;5093776;28;20821;-74
2023/09/11 03:16:48;;;;;;;16.88;15.38;;;;;;;17.45;77.40;100781.69;5093730;28;20425;-74
2023/09/11 03:19:20;;;;;;;17.10;15.40;;;;;;;17.36;78.33;100774.81;5093772;28;20906;-74
2023/09/11 03:21:54;;;;;;;16.25;14.75;;;;;;;17.33;77.66;100774.38;5093339;28;20503;-74
2023/09/11 03:24:26;;;;;;;16.60;15.20;;;;;;;17.44;77.79;100777.31;5093140;28;20496;-74
2023/09/11 03:26:57;;;;;;;17.40;15.88;;;;;;;17.44;78.35;100776.47;5093353;28;20429;-74
2023/09/11 03:29:29;;;;;;;16.20;14.70;;;;;;;17.45;77.51;100778.16;5092821;28;20794;-74
2023/09/11 03:32:01;;;;;;;18.85;17.25;;;;;;;17.39;78.22;100771.69;5092908;28;20440;-74
2023/09/11 03:34:33;;;;;;;18.05;16.25;;;;;;;17.56;77.63;100785.72;5093747;28;21001;-74
2023/09/11 03:37:06;;;;;;;17.95;16.13;;;;;;;17.66;77.32;100773.47;5093948;28;20424;-74
2023/09/11 03:39:38;;;;;;;18.55;16.85;;;;;;;17.64;77.53;100770.09;5093276;28;20425;-74
2023/09/11 03:42:09;;;;;;;18.42;16.73;;;;;;;17.54;77.42;100774.22;5093313;28;20434;-74
2023/09/11 03:44:41;;;;;;;21.05;19.00;;;;;;;17.34;78.57;100771.44;5093389;28;20512;-74
2023/09/11 03:47:15;;;;;;;20.52;18.70;;;;;;;17.23;79.41;100769.34;5093388;28;20420;-74
2023/09/11 03:49:47;;;;;;;20.08;18.00;;;;;;;17.29;79.90;100763.13;5093458;28;20445;-74
2023/09/11 03:52:19;;;;;;;21.80;17.60;;;;;;;17.35;79.52;100765.00;5093400;28;20528;-75
2023/09/11 03:54:51;;;;;;;19.45;17.70;;;;;;;17.30;78.82;100764.78;5092749;28;20520;-74
2023/09/11 03:57:23;;;;;;;18.48;16.67;;;;;;;17.26;78.64;100757.28;5093849;28;20790;-74
2023/09/11 03:59:55;;;;;;;18.52;16.83;;;;;;;17.18;79.60;100753.72;5093033;28;20446;-74
2023/09/11 04:02:25;;;;;;;17.27;15.68;;;;;;;17.25;78.09;100748.34;5092891;28;20424;-73
2023/09/11 04:04:57;;;;;;;18.37;16.70;;;;;;;17.16;78.79;100754.94;5093756;28;20779;-73
2023/09/11 04:07:25;;;;;;;18.38;16.67;;;;;;;17.06;79.20;100749.06;5092867;28;20478;-73
2023/09/11 04:09:56;;;;;;;19.00;17.25;;;;;;;17.02;79.45;100745.13;5092104;28;21000;-73
2023/09/11 04:12:26;;;;;;;19.25;17.48;;;;;;;17.05;80.10;100750.13;5092775;28;20452;-73
2023/09/11 04:14:56;;;;;;;18.33;16.63;;;;;;;17.12;79.58;100753.69;5092490;28;20811;-74
2023/09/11 04:17:28;;;;;;;16.53;15.03;;;;;;;17.29;78.21;100752.31;5092312;28;20565;-73
2023/09/11 04:19:57;;;;;;;16.63;15.02;;;;;;;17.31;77.32;100755.63;5092232;28;20444;-73
2023/09/11 04:22:25;;;;;;;18.15;16.17;;;;;;;17.16;78.28;100747.66;5090588;28;20423;-73
2023/09/11 04:24:55;;;;;;;19.00;17.30;;;;;;;17.03;79.79;100749.50;5091568;28;20425;-73
2023/09/11 04:27:24;;;;;;;18.77;16.93;;;;;;;16.97;80.60;100753.00;5091148;28;20455;-74
2023/09/11 04:29:56;;;;;;;17.52;15.73;;;;;;;16.98;80.08;100751.97;5090623;28;20520;-74
2023/09/11 04:32:26;;;;;;;19.42;17.50;;;;;;;16.95;79.08;100744.28;5091958;28;20531;-73
2023/09/11 04:34:55;;;;;;;19.92;18.00;;;;;;;16.62;81.45;100749.50;5092601;28;20472;-73
2023/09/11 04:37:23;;;;;;;20.60;18.80;;;;;;;16.49;81.52;100752.94;5092069;28;20898;-73
2023/09/11 04:39:53;;;;;;;22.38;20.17;;;;;;;16.41;82.16;100752.22;5091968;28;20421;-73
2023/09/11 04:42:22;;;;;;;20.98;19.10;;;;;;;16.37;83.36;100759.91;5092418;28;20453;-73
2023/09/11 04:44:58;;;;;;;22.83;20.63;;;;;;;16.37;83.23;100746.38;5092088;28;20498;-73
2023/09/11 04:47:31;;;;;;;22.45;20.27;;;;;;;16.34;83.33;100749.50;5092357;28;20417;-73
2023/09/11 04:50:02;;;;;;;22.15;19.98;;;;;;;16.30;82.90;100753.63;5091993;28;20810;-73
2023/09/11 04:52:33;;;;;;;22.13;19.83;;;;;;;16.24;83.68;100751.69;5092506;28;20878;-73
2023/09/11 04:55:04;;;;;;;23.17;20.97;;;;;;;16.28;83.83;100744.88;5091899;28;20840;-74
2023/09/11 04:57:34;;;;;;;24.25;21.85;;;;;;;16.20;84.28;100740.47;5092234;28;20472;-74
2023/09/11 05:00:09;;;;;;;23.75;21.23;;;;;;;16.19;84.14;100743.38;5092838;28;20504;-74
2023/09/11 05:02:39;;;;;;;22.63;20.47;;;;;;;16.23;85.08;100744.66;5098438;28;20492;-72
2023/09/11 05:05:08;;;;;;;23.38;20.88;;;;;;;16.29;83.24;100746.56;5097892;28;20464;-74
2023/09/11 05:07:36;;;;;;;23.70;21.27;;;;;;;16.23;84.70;100748.16;5095883;28;20509;-74
2023/09/11 05:10:08;;;;;;;22.00;19.73;;;;;;;16.37;82.71;100745.59;5095956;28;20515;-74
2023/09/11 05:12:36;;;;;;;23.67;21.30;;;;;;;16.30;83.50;100758.22;5095499;28;20445;-74
2023/09/11 05:15:05;;;;;;;23.77;20.65;;;;;;;16.33;83.92;100753.25;5095964;28;20793;-74
2023/09/11 05:17:34;;;;;;;22.60;20.25;;;;;;;16.23;84.07;100755.47;5096006;28;20420;-73
2023/09/11 05:20:06;;;;;;;22.67;20.30;;;;;;;16.26;84.52;100754.22;5096002;28;20428;-73
2023/09/11 05:22:37;;;;;;;22.65;20.27;;;;;;;16.28;84.48;100757.56;5095504;28;21057;-73
2023/09/11 05:25:06;;;;;;;26.05;20.65;;;;;;;16.31;84.50;100758.00;5095820;28;20472;-73
2023/09/11 05:27:34;;;;;;;23.70;21.13;;;;;;;16.33;84.31;100758.66;5095811;28;20453;-73
2023/09/11 05:30:03;;;;;;;25.10;22.10;;;;;;;16.28;84.50;100758.38;5095673;28;20436;-73
2023/09/11 05:32:33;;;;;;;23.95;21.15;;;;;;;16.34;84.67;100762.16;5096119;28;20425;-73
2023/09/11 05:35:04;;;;;;;26.95;24.13;;;;;;;16.31;85.42;100754.44;5095693;28;20429;-73
2023/09/11 05:37:33;;;;;;;26.45;23.65;;;;;;;16.33;84.40;100753.25;5095313;28;20427;-73
2023/09/11 05:40:07;;;;;;;26.00;23.23;;;;;;;16.38;84.64;100748.06;5095364;28;20512;-73
2023/09/11 05:42:37;;;;;;;25.00;22.30;;;;;;;16.48;84.34;100751.25;5095479;28;20452;-73
2023/09/11 05:45:06;;;;;;;24.10;21.90;;;;;;;16.52;84.84;100744.41;5095335;28;20435;-73
2023/09/11 05:47:36;;;;;;;24.98;22.38;;;;;;;16.52;84.71;100744.41;5095480;28;20420;-73
2023/09/11 05:50:07;;;;;;;24.30;21.88;;;;;;;16.56;84.43;100743.03;5095193;28;20421;-73
2023/09/11 05:52:37;;;;;;;28.33;23.17;;;;;;;16.58;84.98;100750.91;5094988;28;20424;-73
2023/09/11 05:55:07;;;;;;;24.38;21.85;;;;;;;16.67;83.83;100742.47;5095024;28;20431;-73
2023/09/11 05:57:35;;;;;;;25.07;22.63;;;;;;;16.65;84.46;100739.13;5095146;28;20521;-73
2023/09/11 06:00:09;;;;;;;26.55;23.80;;;;;;;16.67;85.21;100741.63;5095116;28;20432;-73
2023/09/11 06:02:38;;;;;;;27.50;24.27;;;;;;;16.65;85.23;100739.13;5094723;28;20421;-73
2023/09/11 06:05:08;;;;;;;25.38;22.80;;;;;;;16.77;85.75;100743.97;5094807;28;20431;-74
2023/09/11 06:07:39;;;;;;;24.10;21.67;;;;;;;16.84;83.88;100744.84;5094564;28;20428;-73
2023/09/11 06:10:10;;;;;;;26.65;23.92;;;;;;;16.83;85.24;100746.69;5094507;28;20460;-73
2023/09/11 06:12:38;;;;;;;26.20;23.23;;;;;;;16.87;85.24;100741.72;5094130;28;20425;-73
2023/09/11 06:15:08;;;;;;;27.25;24.33;;;;;;;16.89;85.59;100745.06;5094496;28;20448;-73
2023/09/11 06:17:38;;;;;;;26.27;23.63;;;;;;;16.95;85.48;100738.88;5094877;28;20443;-72
2023/09/11 06:20:18;;;;;;;26.23;23.60;;;;;;;16.99;86.08;100749.06;5094412;28;20861;-72
2023/09/11 06:22:49;;;;;;;25.65;22.95;;;;;;;17.02;86.07;100745.13;5094401;28;20909;-72
2023/09/11 06:25:17;;;;;;;29.38;23.35;;;;;;;17.05;85.98;100744.72;5094212;28;20458;-73
2023/09/11 06:27:46;;;;;;;29.25;23.35;;;;;;;17.10;86.90;100739.53;5094122;28;20852;-73
2023/09/11 06:30:15;;;;;;;27.40;23.73;;;;;;;17.12;87.14;100745.59;5094372;28;20431;-73
2023/09/11 06:32:43;;;;;;;29.23;22.48;;;;;;;17.15;87.66;100751.44;5094219;28;20543;-73
2023/09/11 06:35:13;;;;;;;26.60;21.67;;;;;;;17.20;86.41;100748.94;5094023;28;20436;-73
2023/09/11 06:37:42;;;;;;;26.83;21.58;;;;;;;17.24;87.08;100755.59;5094737;28;20431;-73
2023/09/11 06:40:12;;;;;;;27.08;21.45;;;;;;;17.28;86.91;100738.97;5094032;28;20523;-73
2023/09/11 06:42:40;;;;;;;28.20;21.53;;;;;;;17.30;87.79;100745.00;5093810;28;20507;-73
2023/09/11 06:45:10;;;;;;;25.60;20.58;;;;;;;17.35;86.84;100751.47;5094160;28;20984;-73
2023/09/11 06:47:39;;;;;;;27.60;20.42;;;;;;;17.40;87.37;100746.28;5094819;28;20427;-73
2023/09/11 06:50:08;;;;;;;29.63;21.45;;;;;;;17.46;86.39;100741.94;5093942;28;20417;-73
2023/09/11 06:52:40;;;;;;;22.80;18.40;;;;;;;17.49;86.10;100742.38;5094036;28;20523;-73
2023/09/11 06:55:11;;;;;;;25.95;20.33;;;;;;;17.58;86.97;100746.56;5093541;28;21030;-73
2023/09/11 06:57:55;;;;;;;27.58;19.73;;;;;;;17.63;86.47;100745.97;5093446;28;20926;-73
2023/09/11 07:00:24;;;;;;;18.58;16.00;;;;;;;17.66;84.22;100751.78;5093408;28;20515;-73
2023/09/11 07:02:54;;;;;;;23.48;18.50;;;;;;;17.71;85.28;100753.88;5093444;28;20459;-73
2023/09/11 07:05:22;;;;;;;22.70;19.10;;;;;;;17.75;85.46;100747.00;5093699;28;20615;-74
2023/09/11 07:07:54;;;;;;;21.70;15.90;;;;;;;17.79;85.98;100736.59;5094392;28;20649;-74
2023/09/11 07:10:25;;;;;;;23.55;19.30;;;;;;;17.86;86.12;100737.44;5093546;28;20519;-74
2023/09/11 07:13:09;;;;;;;27.13;20.30;;;;;;;17.97;86.83;100739.53;5093625;28;20456;-74
2023/09/11 07:15:40;;;;;;;22.63;20.00;;;;;;;18.06;86.90;100738.25;5093639;28;20453;-74
2023/09/11 07:18:09;;;;;;;21.65;17.55;;;;;;;18.10;86.80;100739.50;5093436;28;20851;-74
2023/09/11 07:20:38;;;;;;;22.45;20.15;;;;;;;18.15;87.39;100737.03;5093328;28;20431;-74
2023/09/11 07:23:07;;;;;;;22.63;20.33;;;;;;;18.22;87.41;100735.94;5093939;28;20420;-74
2023/09/11 07:25:36;;;;;;;27.73;24.85;;;;;;;18.30;87.68;100726.78;5092893;28;20431;-74
2023/09/11 07:28:05;;;;;;;26.95;20.52;;;;;;;18.42;87.53;100732.41;5093620;28;20486;-74
2023/09/11 07:30:34;;;;;;;24.47;19.47;;;;;;;18.45;87.78;100726.56;5093306;28;20428;-74
2023/09/11 07:33:02;;;;;;;21.10;18.83;;;;;;;18.50;87.96;100730.31;5093427;28;20519;-74
2023/09/11 07:35:31;;;;;;;21.67;19.15;;;;;;;18.56;87.91;100732.16;5093046;28;20436;-74
2023/09/11 07:37:59;;;;;;;18.87;16.77;;;;;;;18.66;87.53;100729.03;5092988;28;20515;-74
2023/09/11 07:40:31;;;;;;;19.23;15.88;;;;;;;18.80;87.22;100729.81;5093274;28;20829;-74
2023/09/11 07:42:59;;;;;;;19.48;17.00;;;;;;;18.89;87.19;100733.97;5092882;28;20425;-74
2023/09/11 07:45:28;;;;;;;20.33;15.33;;;;;;;18.99;85.41;100726.19;5094120;28;20205;-74
2023/09/11 07:47:56;;;;;;;22.92;16.70;;;;;;;19.08;86.79;100727.59;5092762;28;20931;-74
2023/09/11 07:50:25;;;;;;;18.38;12.95;;;;;;;19.19;85.13;100724.22;5092985;28;20424;-74
2023/09/11 07:52:56;;;;;;;17.80;14.57;;;;;;;19.23;84.00;100728.16;5093103;28;20433;-75
2023/09/11 07:55:24;;;;;;;23.65;16.33;;;;;;;19.39;83.46;100724.94;5092825;28;20519;-69
2023/09/11 07:57:56;;;;;;;20.25;14.07;;;;;;;19.54;82.76;100725.50;5093292;28;20427;-69
2023/09/11 08:00:30;;;;;;;19.38;13.60;;;;;;;19.77;82.33;100724.91;5092376;28;20787;-69
2023/09/11 08:02:59;;;;;;;18.13;12.98;;;;;;;19.86;81.74;100720.91;5092599;28;20424;-69
2023/09/11 08:05:27;;;;;;;15.45;12.77;;;;;;;19.90;81.57;100721.28;5092405;28;20474;-69
2023/09/11 08:07:58;;;;;;;17.77;11.85;;;;;;;20.03;82.28;100727.44;5092862;28;20428;-69
2023/09/11 08:10:28;;;;;;;16.63;11.95;;;;;;;20.26;80.89;100721.38;5093483;28;20456;-69
2023/09/11 08:13:00;;;;;;;17.60;13.02;;;;;;;20.28;80.87;100719.28;5092817;28;20533;-70
2023/09/11 08:15:29;;;;;;;19.97;12.07;;;;;;;20.31;81.49;100718.81;5091809;28;20983;-70
2023/09/11 08:17:58;;;;;;;15.23;11.23;;;;;;;20.30;81.58;100714.47;5091335;28;20475;-70
2023/09/11 08:20:28;;;;;;;17.75;11.20;;;;;;;20.45;80.36;100717.63;5092483;28;20429;-70
2023/09/11 08:22:58;;;;;;;14.75;10.07;;;;;;;20.55;78.55;100709.78;5092160;28;20425;-70
2023/09/11 08:25:30;;;;;;;17.35;10.65;;;;;;;20.58;78.76;100714.78;5091893;28;20420;-70
2023/09/11 08:27:59;;;;;;;17.77;10.02;;;;;;;20.63;79.10;100706.78;5092401;28;20510;-70
2023/09/11 08:30:30;;;;;;;16.40;10.10;;;;;;;20.82;78.33;100712.22;5093312;28;20452;-70
2023/09/11 08:32:58;;;;;;;14.70;9.73;;;;;;;21.00;77.58;100706.75;5092973;28;20748;-70
2023/09/11 08:35:27;;;;;;;16.52;10.02;;;;;;;21.05;78.23;100709.63;5093353;28;20436;-70
2023/09/11 08:37:56;;;;;;;13.45;10.05;;;;;;;21.17;77.35;100713.25;5096717;28;20428;-70
2023/09/11 08:40:30;;;;;;;16.98;9.55;;;;;;;21.41;76.26;100714.16;5096870;28;20434;-70
2023/09/11 08:43:02;;;;;;;17.65;9.38;;;;;;;21.56;74.49;100711.84;5096755;28;20516;-70
2023/09/11 08:45:31;;;;;;;15.70;9.33;;;;;;;21.50;75.35;100710.06;5096942;28;20886;-70
2023/09/11 08:48:08;;;;;;;17.38;9.55;;;;;;;21.57;76.12;100713.53;5096606;28;20516;-70
2023/09/11 08:50:40;;;;;;;22.33;9.63;;;;;;;22.00;72.30;100718.72;5096159;28;20421;-70
2023/09/11 08:53:09;;;;;;;19.08;9.20;;;;;;;22.12;70.97;100711.41;5096054;28;20429;-70
2023/09/11 08:55:38;;;;;;;17.95;9.00;;;;;;;22.51;68.83;100702.47;5096623;28;20519;-70
2023/09/11 08:58:12;;;;;;;18.75;8.98;;;;;;;22.79;67.55;100709.09;5096290;28;20424;-70
2023/09/11 09:00:42;;;;;;;15.70;9.20;;;;;;;22.77;68.17;100703.06;5096045;28;20416;-70
2023/09/11 09:03:11;;;;;;;16.95;8.63;;;;;;;22.60;69.59;100706.47;5096370;28;20447;-70
2023/09/11 09:05:41;;;;;;;16.50;8.82;;;;;;;22.62;69.65;100696.19;5096253;28;20897;-70
2023/09/11 09:08:15;;;;;;;21.65;8.98;;;;;;;22.90;66.96;100692.69;5095793;28;20508;-70
2023/09/11 09:10:44;;;;;;;17.88;7.90;;;;;;;22.98;67.24;100694.22;5096435;28;20428;-69
2023/09/11 09:13:16;;;;;;;15.77;9.40;;;;;;;23.20;65.75;100687.00;5096024;28;20428;-69
2023/09/11 09:15:45;;;;;;;17.97;8.50;;;;;;;23.59;64.09;100697.06;5096588;28;20208;-70
2023/09/11 09:18:17;;;;;;;17.85;8.88;;;;;;;23.57;64.64;100692.91;5095778;28;20448;-70
2023/09/11 09:20:46;;;;;;;17.40;8.15;;;;;;;23.68;64.09;100690.09;5095705;28;20764;-70
2023/09/11 09:23:17;;;;;;;23.17;8.30;;;;;;;23.84;61.88;100698.53;5095461;28;20865;-70
2023/09/11 09:25:45;;;;;;;23.63;8.50;;;;;;;24.06;61.29;100688.53;5095543;28;20512;-70
2023/09/11 09:28:28;;;;;;;16.75;7.85;;;;;;;24.16;60.30;100685.97;5095631;28;20846;-70
2023/09/11 09:31:03;;;;;;;19.80;7.80;;;;;;;24.28;60.41;100696.84;5096448;28;20793;-70
2023/09/11 09:33:34;;;;;;;18.80;7.65;;;;;;;24.14;63.14;100682.66;5095600;28;20448;-70
2023/09/11 09:36:02;;;;;;;52.20;10.05;;;;;;;24.28;60.43;100689.44;5095613;28;20467;-70
2023/09/11 09:38:33;;;;;;;24.73;7.97;;;;;;;24.58;59.68;100692.63;5095203;28;20786;-70
2023/09/11 09:41:10;;;;;;;22.08;7.88;;;;;;;24.66;58.25;100681.19;5095695;28;20495;-62
2023/09/11 09:43:51;;;;;;;15.13;7.38;;;;;;;24.84;58.16;100676.53;5094746;28;20910;-71
2023/09/11 09:46:20;;;;;;;19.87;7.83;;;;;;;24.78;59.85;100677.50;5095419;28;20420;-71
2023/09/11 09:48:51;;;;;;;19.35;7.35;;;;;;;24.83;58.37;100681.16;5095221;28;20494;-71
2023/09/11 09:51:20;;;;;;;21.80;7.57;;;;;;;25.10;58.14;100682.03;5095203;28;20420;-71
2023/09/11 09:53:55;;;;;;;18.75;7.40;;;;;;;25.03;58.37;100675.13;5095080;28;20431;-71
2023/09/11 09:56:23;;;;;;;18.52;7.43;;;;;;;25.33;56.58;100678.19;5094976;28;20476;-71
2023/09/11 09:58:53;;;;;;;19.95;7.85;;;;;;;25.32;58.01;100682.00;5096291;28;20499;-71
2023/09/11 10:01:25;;;;;;;17.27;7.13;;;;;;;25.46;56.50;100668.69;5094838;28;20425;-71
2023/09/11 10:03:56;;;;;;;20.77;7.97;;;;;;;25.64;55.57;100671.94;5095543;28;20767;-71
2023/09/11 10:06:26;;;;;;;22.13;7.40;;;;;;;25.78;55.97;100666.00;5095918;28;20486;-71
2023/09/11 10:09:06;;;;;;;20.17;8.27;;;;;;;25.86;55.12;100665.53;5095797;28;20420;-71
2023/09/11 10:11:37;;;;;;;19.13;6.80;;;;;;;25.94;56.20;100659.53;5095897;28;20196;-71
2023/09/11 10:14:09;;;;;;;23.23;7.97;;;;;;;26.11;54.88;100658.28;5094520;28;20917;-71
2023/09/11 10:16:39;;;;;;;21.02;7.22;;;;;;;26.11;55.01;100655.56;5095703;28;20283;-71
2023/09/11 10:19:11;;;;;;;23.15;7.97;;;;;;;26.14;54.72;100648.69;5095559;28;20448;-71
2023/09/11 10:21:42;;;;;;;20.13;8.27;;;;;;;26.31;54.36;100648.56;5095220;28;20493;-71
2023/09/11 10:24:12;;;;;;;18.85;8.07;;;;;;;26.41;53.94;100649.44;5094681;28;20421;-71
2023/09/11 10:26:46;;;;;;;12.73;6.53;;;;;;;26.31;55.92;100638.41;5095560;28;20296;-71
2023/09/11 10:29:24;;;;;;;18.67;7.53;;;;;;;26.55;54.57;100645.13;5094441;28;20517;-71
2023/09/11 10:31:59;;;;;;;17.15;7.50;;;;;;;26.54;55.94;100646.19;5094244;28;20856;-71
2023/09/11 10:34:30;;;;;;;19.33;7.47;;;;;;;26.77;53.43;100646.84;5094575;28;20471;-71
2023/09/11 10:36:59;;;;;;;18.65;7.35;;;;;;;26.87;53.87;100638.69;5094081;28;20918;-71
2023/09/11 10:39:28;;;;;;;21.95;8.05;;;;;;;26.88;52.88;100632.09;5094145;28;20902;-71
2023/09/11 10:41:58;;;;;;;21.35;7.28;;;;;;;26.93;52.06;100635.69;5095320;28;20428;-71
2023/09/11 10:44:29;;;;;;;20.35;7.55;;;;;;;27.19;51.83;100633.84;5094999;28;20813;-71
2023/09/11 10:47:05;;;;;;;23.15;7.82;;;;;;;27.26;50.97;100633.56;5093588;28;20413;-71
2023/09/11 10:49:38;;;;;;;19.17;7.07;;;;;;;27.35;50.93;100627.25;5095106;28;20220;-71
2023/09/11 10:52:08;;;;;;;16.27;7.05;;;;;;;27.46;51.65;100634.44;5095304;28;20236;-71
2023/09/11 10:54:37;;;;;;;29.90;8.60;;;;;;;27.55;50.07;100627.28;5094183;28;20503;-71
2023/09/11 10:57:08;;;;;;;18.05;7.28;;;;;;;27.59;52.31;100631.13;5093427;28;20451;-71
2023/09/11 10:59:38;;;;;;;23.40;7.05;;;;;;;27.58;51.47;100632.22;5094079;28;20200;-71
2023/09/11 11:02:07;;;;;;;17.60;7.05;;;;;;;27.70;51.71;100624.53;5094207;28;20420;-71
2023/09/11 11:04:37;;;;;;;25.27;8.23;;;;;;;27.84;49.16;100624.81;5093861;28;20432;-71
2023/09/11 11:07:08;;;;;;;20.17;7.30;;;;;;;27.90;49.86;100620.94;5094485;28;20487;-71
2023/09/11 11:09:40;;;;;;;22.38;7.60;;;;;;;28.06;49.14;100621.72;5093249;28;20427;-71
2023/09/11 11:12:13;;;;;;;19.35;7.50;;;;;;;28.08;50.85;100622.31;5093942;28;20430;-71
2023/09/11 11:14:43;;;;;;;17.20;7.28;;;;;;;28.13;49.79;100627.81;5094678;28;20189;-71
2023/09/11 11:17:12;;;;;;;25.45;8.32;;;;;;;28.32;47.26;100626.13;5093841;28;20452;-71
2023/09/11 11:19:52;;;;;;;23.88;8.07;;;;;;;28.31;48.10;100618.94;5094480;28;20692;-71
2023/09/11 11:22:31;;;;;;;14.77;5.97;;;;;;;28.34;48.53;100610.13;5094461;28;20220;-71
2023/09/11 11:25:05;;;;;;;16.98;6.78;;;;;;;28.48;49.34;100613.94;5094481;28;20311;-71
2023/09/11 11:27:33;;;;;;;16.23;7.50;;;;;;;28.54;46.32;100610.03;5093419;28;20471;-71
2023/09/11 11:30:05;;;;;;;19.10;7.03;;;;;;;28.76;47.03;100604.19;5094068;28;20212;-71
2023/09/11 11:32:35;;;;;;;21.92;7.47;;;;;;;28.78;46.23;100595.63;5093019;28;20424;-71